الصفحة الرئيسية
METAR-TAF:

METAR-TAF

مطار :

Liberia, كوستاريكا

دائرة عرض: 10-37N, خط طول: 085-26W, ارتفاع: 80 متر

مراقبة الطقس الحالي

تاريخ ووقت الإصدار 55 دقيقة قبل الساعة 17:00UTC
ريح 8 عقدة من الغرب
درجة الحرارة 34°درجة مئوية
الرطوبة 39%
ضغط 1012 hPa
الرؤية 10 كم أو أكثر
غيوم قليلة على ارتفاع 3500 قدم

METAR: MRLB 041700Z 27008KT 9999 FEW035 34/18 A2987

زمن: 11:55 (17:55 UTC)

توقعات

تاريخ ووقت الإصدار 55 دقيقة قبل الساعة 17:00UTC
التوقعات صالحة من04 الساعة 18 UTC إلى 05 الساعة 18 UTC
ريح 7 عقدة من الغرب
الرؤية 10 كم أو أكثر
غيوم قليلة على ارتفاع 4500 قدم
من 05 الساعة 0300 UTC
ريح 5 عقدة من الجنوب
الرؤية 10 كم أو أكثر
الغيوم لا تقل 1500 م ولا وجود لمزنة ركامية السحاب الأسود
من 05 الساعة 1400 UTC
ريح 8 عقدة من الشرق
الرؤية 10 كم أو أكثر
غيوم قليلة على ارتفاع 4000 قدم

TAF: MRLB 041700Z 0418/0518 27007KT 9999 FEW045 TX36/0420Z TN24/0511Z FM050300 17005KT CAVOK FM051400 10008KT 9999 FEW040

أرصاد الطقس والتوقعات من أكثر من 4000 مطار (تقارير الطقس للمطار METAR والتنبؤ بالطقس بالمطارTAF).

المحطات المتاحة هي النقط الصفراء والحمراء على الخريطة.

حرك المؤشر فوق النقطة لمعرفة اسم المحطة.

ثم انقر لمعرفة أرصاد وتوقعات الطقس.

لتغيير الخارطة: اضغط على الأزرار الخضراء مع رمز الصليب الأسود للتكبير. على الزر الأخضر مع شرطة للتصغير، أو على الأسهم الخضراء للخرائط المجاورة.


METAR-TAF: